sensor_id;sensor_type;location;lat;lon;timestamp;temperature;humidity
9984;DHT22;16737;50.932;6.780;2023-08-08T00:00:44;18.00;92.00
9984;DHT22;16737;50.932;6.780;2023-08-08T00:03:11;18.00;91.70
9984;DHT22;16737;50.932;6.780;2023-08-08T00:05:39;17.90;91.60
9984;DHT22;16737;50.932;6.780;2023-08-08T00:08:12;17.90;91.70
9984;DHT22;16737;50.932;6.780;2023-08-08T00:10:39;17.90;91.70
9984;DHT22;16737;50.932;6.780;2023-08-08T00:13:06;17.90;91.60
9984;DHT22;16737;50.932;6.780;2023-08-08T00:15:33;17.90;91.70
9984;DHT22;16737;50.932;6.780;2023-08-08T00:18:00;17.90;91.70
9984;DHT22;16737;50.932;6.780;2023-08-08T00:20:27;17.80;91.70
9984;DHT22;16737;50.932;6.780;2023-08-08T00:22:56;17.80;91.70
9984;DHT22;16737;50.932;6.780;2023-08-08T00:25:23;17.80;91.70
9984;DHT22;16737;50.932;6.780;2023-08-08T00:27:50;17.70;91.70
9984;DHT22;16737;50.932;6.780;2023-08-08T00:30:17;17.70;91.70
9984;DHT22;16737;50.932;6.780;2023-08-08T00:32:44;17.70;91.70
9984;DHT22;16737;50.932;6.780;2023-08-08T00:35:11;17.70;91.70
9984;DHT22;16737;50.932;6.780;2023-08-08T00:37:38;17.60;91.70
9984;DHT22;16737;50.932;6.780;2023-08-08T00:40:07;17.60;91.70
9984;DHT22;16737;50.932;6.780;2023-08-08T00:42:37;17.60;91.80
9984;DHT22;16737;50.932;6.780;2023-08-08T00:45:04;17.60;91.70
9984;DHT22;16737;50.932;6.780;2023-08-08T00:47:32;17.50;91.70
9984;DHT22;16737;50.932;6.780;2023-08-08T00:50:01;17.50;92.10
9984;DHT22;16737;50.932;6.780;2023-08-08T00:52:29;17.50;91.80
9984;DHT22;16737;50.932;6.780;2023-08-08T00:54:57;17.50;91.80
9984;DHT22;16737;50.932;6.780;2023-08-08T00:57:26;17.50;91.80
9984;DHT22;16737;50.932;6.780;2023-08-08T00:59:53;17.40;91.80
9984;DHT22;16737;50.932;6.780;2023-08-08T01:02:20;17.40;91.80
9984;DHT22;16737;50.932;6.780;2023-08-08T01:04:48;17.40;91.90
9984;DHT22;16737;50.932;6.780;2023-08-08T01:07:27;17.40;91.90
9984;DHT22;16737;50.932;6.780;2023-08-08T01:10:04;17.40;92.00
9984;DHT22;16737;50.932;6.780;2023-08-08T01:12:40;17.30;91.90
9984;DHT22;16737;50.932;6.780;2023-08-08T01:15:11;17.30;92.00
9984;DHT22;16737;50.932;6.780;2023-08-08T01:17:41;17.30;91.90
9984;DHT22;16737;50.932;6.780;2023-08-08T01:20:11;17.30;92.00
9984;DHT22;16737;50.932;6.780;2023-08-08T01:22:48;17.20;92.00
9984;DHT22;16737;50.932;6.780;2023-08-08T01:25:23;17.20;92.10
9984;DHT22;16737;50.932;6.780;2023-08-08T01:27:50;17.20;92.10
9984;DHT22;16737;50.932;6.780;2023-08-08T01:30:17;17.20;92.10
9984;DHT22;16737;50.932;6.780;2023-08-08T01:32:44;17.20;92.10
9984;DHT22;16737;50.932;6.780;2023-08-08T01:35:11;17.20;92.20
9984;DHT22;16737;50.932;6.780;2023-08-08T01:37:43;17.20;92.20
9984;DHT22;16737;50.932;6.780;2023-08-08T01:40:16;17.10;92.30
9984;DHT22;16737;50.932;6.780;2023-08-08T01:42:47;17.10;92.30
9984;DHT22;16737;50.932;6.780;2023-08-08T01:45:15;17.10;92.30
9984;DHT22;16737;50.932;6.780;2023-08-08T01:47:43;17.10;92.30
9984;DHT22;16737;50.932;6.780;2023-08-08T01:50:16;17.10;92.30
9984;DHT22;16737;50.932;6.780;2023-08-08T01:52:43;17.10;92.40
9984;DHT22;16737;50.932;6.780;2023-08-08T01:55:10;17.10;92.40
9984;DHT22;16737;50.932;6.780;2023-08-08T01:57:37;17.10;92.40
9984;DHT22;16737;50.932;6.780;2023-08-08T02:00:07;17.10;92.40
9984;DHT22;16737;50.932;6.780;2023-08-08T02:02:35;17.10;92.50
9984;DHT22;16737;50.932;6.780;2023-08-08T02:05:02;17.10;92.40
9984;DHT22;16737;50.932;6.780;2023-08-08T02:07:29;17.10;92.50
9984;DHT22;16737;50.932;6.780;2023-08-08T02:09:56;17.10;92.50
9984;DHT22;16737;50.932;6.780;2023-08-08T02:12:23;17.10;92.50
9984;DHT22;16737;50.932;6.780;2023-08-08T02:14:50;17.10;92.50
9984;DHT22;16737;50.932;6.780;2023-08-08T02:17:18;17.10;92.50
9984;DHT22;16737;50.932;6.780;2023-08-08T02:19:45;17.10;92.60
9984;DHT22;16737;50.932;6.780;2023-08-08T02:22:12;17.10;92.60
9984;DHT22;16737;50.932;6.780;2023-08-08T02:24:39;17.10;92.60
9984;DHT22;16737;50.932;6.780;2023-08-08T02:27:06;17.10;92.60
9984;DHT22;16737;50.932;6.780;2023-08-08T02:29:34;17.10;92.90
9984;DHT22;16737;50.932;6.780;2023-08-08T02:32:01;17.10;92.60
9984;DHT22;16737;50.932;6.780;2023-08-08T02:34:29;17.00;92.60
9984;DHT22;16737;50.932;6.780;2023-08-08T02:36:56;17.00;92.60
9984;DHT22;16737;50.932;6.780;2023-08-08T02:39:23;17.00;92.60
9984;DHT22;16737;50.932;6.780;2023-08-08T02:41:50;17.00;92.60
9984;DHT22;16737;50.932;6.780;2023-08-08T02:44:17;17.10;92.70
9984;DHT22;16737;50.932;6.780;2023-08-08T02:46:45;17.00;92.60
9984;DHT22;16737;50.932;6.780;2023-08-08T02:49:11;17.00;92.60
9984;DHT22;16737;50.932;6.780;2023-08-08T02:51:40;17.00;92.70
9984;DHT22;16737;50.932;6.780;2023-08-08T02:54:07;17.00;92.70
9984;DHT22;16737;50.932;6.780;2023-08-08T02:56:34;17.00;92.60
9984;DHT22;16737;50.932;6.780;2023-08-08T02:59:00;17.00;92.70
9984;DHT22;16737;50.932;6.780;2023-08-08T03:01:27;17.00;92.70
9984;DHT22;16737;50.932;6.780;2023-08-08T03:03:54;16.90;92.60
9984;DHT22;16737;50.932;6.780;2023-08-08T03:06:21;16.90;92.60
9984;DHT22;16737;50.932;6.780;2023-08-08T03:08:49;16.90;93.00
9984;DHT22;16737;50.932;6.780;2023-08-08T03:11:16;16.90;92.70
9984;DHT22;16737;50.932;6.780;2023-08-08T03:13:43;16.90;92.70
9984;DHT22;16737;50.932;6.780;2023-08-08T03:16:10;16.90;92.70
9984;DHT22;16737;50.932;6.780;2023-08-08T03:18:37;16.90;92.80
9984;DHT22;16737;50.932;6.780;2023-08-08T03:21:04;16.90;92.80
9984;DHT22;16737;50.932;6.780;2023-08-08T03:23:31;16.90;92.80
9984;DHT22;16737;50.932;6.780;2023-08-08T03:25:59;16.90;92.80
9984;DHT22;16737;50.932;6.780;2023-08-08T03:28:26;16.80;92.80
9984;DHT22;16737;50.932;6.780;2023-08-08T03:30:53;16.80;92.80
9984;DHT22;16737;50.932;6.780;2023-08-08T03:33:20;16.80;92.80
9984;DHT22;16737;50.932;6.780;2023-08-08T03:35:47;16.80;92.90
9984;DHT22;16737;50.932;6.780;2023-08-08T03:38:14;16.80;92.90
9984;DHT22;16737;50.932;6.780;2023-08-08T03:40:42;16.80;92.90
9984;DHT22;16737;50.932;6.780;2023-08-08T03:43:10;16.80;93.00
9984;DHT22;16737;50.932;6.780;2023-08-08T03:45:37;16.80;93.00
9984;DHT22;16737;50.932;6.780;2023-08-08T03:48:06;16.80;93.00
9984;DHT22;16737;50.932;6.780;2023-08-08T03:50:33;16.80;93.00
9984;DHT22;16737;50.932;6.780;2023-08-08T03:53:00;16.70;93.00
9984;DHT22;16737;50.932;6.780;2023-08-08T03:55:27;16.80;93.10
9984;DHT22;16737;50.932;6.780;2023-08-08T03:57:54;16.70;93.40
9984;DHT22;16737;50.932;6.780;2023-08-08T04:00:22;16.70;93.10
9984;DHT22;16737;50.932;6.780;2023-08-08T04:02:49;16.70;93.20
9984;DHT22;16737;50.932;6.780;2023-08-08T04:05:16;16.70;93.20
9984;DHT22;16737;50.932;6.780;2023-08-08T04:07:43;16.70;93.20
9984;DHT22;16737;50.932;6.780;2023-08-08T04:10:11;16.70;93.30
9984;DHT22;16737;50.932;6.780;2023-08-08T04:12:38;16.70;93.30
9984;DHT22;16737;50.932;6.780;2023-08-08T04:15:06;16.70;93.30
9984;DHT22;16737;50.932;6.780;2023-08-08T04:17:35;16.70;93.40
9984;DHT22;16737;50.932;6.780;2023-08-08T04:20:02;16.60;93.40
9984;DHT22;16737;50.932;6.780;2023-08-08T04:22:31;16.60;93.50
9984;DHT22;16737;50.932;6.780;2023-08-08T04:24:58;16.60;93.50
9984;DHT22;16737;50.932;6.780;2023-08-08T04:27:25;16.60;93.60
9984;DHT22;16737;50.932;6.780;2023-08-08T04:29:52;16.60;93.60
9984;DHT22;16737;50.932;6.780;2023-08-08T04:32:18;16.70;93.70
9984;DHT22;16737;50.932;6.780;2023-08-08T04:34:47;16.60;93.70
9984;DHT22;16737;50.932;6.780;2023-08-08T04:37:16;16.60;93.80
9984;DHT22;16737;50.932;6.780;2023-08-08T04:39:43;16.60;93.70
9984;DHT22;16737;50.932;6.780;2023-08-08T04:42:10;16.60;93.80
9984;DHT22;16737;50.932;6.780;2023-08-08T04:44:37;16.60;93.80
9984;DHT22;16737;50.932;6.780;2023-08-08T04:47:04;16.60;94.20
9984;DHT22;16737;50.932;6.780;2023-08-08T04:49:31;16.60;94.00
9984;DHT22;16737;50.932;6.780;2023-08-08T04:52:00;16.60;94.00
9984;DHT22;16737;50.932;6.780;2023-08-08T04:54:27;16.60;94.10
9984;DHT22;16737;50.932;6.780;2023-08-08T04:56:54;16.70;94.20
9984;DHT22;16737;50.932;6.780;2023-08-08T04:59:20;16.70;94.20
9984;DHT22;16737;50.932;6.780;2023-08-08T05:01:47;16.70;94.30
9984;DHT22;16737;50.932;6.780;2023-08-08T05:04:14;16.70;94.30
9984;DHT22;16737;50.932;6.780;2023-08-08T05:06:41;16.80;94.40
9984;DHT22;16737;50.932;6.780;2023-08-08T05:09:09;16.80;94.80
9984;DHT22;16737;50.932;6.780;2023-08-08T05:11:36;16.80;94.50
9984;DHT22;16737;50.932;6.780;2023-08-08T05:14:03;16.80;94.50
9984;DHT22;16737;50.932;6.780;2023-08-08T05:16:30;16.90;94.60
9984;DHT22;16737;50.932;6.780;2023-08-08T05:18:57;16.90;94.70
9984;DHT22;16737;50.932;6.780;2023-08-08T05:21:24;16.90;94.70
9984;DHT22;16737;50.932;6.780;2023-08-08T05:23:51;17.00;94.70
9984;DHT22;16737;50.932;6.780;2023-08-08T05:26:19;17.00;94.80
9984;DHT22;16737;50.932;6.780;2023-08-08T05:28:46;17.10;94.90
9984;DHT22;16737;50.932;6.780;2023-08-08T05:31:13;17.10;94.90
9984;DHT22;16737;50.932;6.780;2023-08-08T05:33:40;17.10;94.90
9984;DHT22;16737;50.932;6.780;2023-08-08T05:36:07;17.20;95.00
9984;DHT22;16737;50.932;6.780;2023-08-08T05:38:34;17.20;94.90
9984;DHT22;16737;50.932;6.780;2023-08-08T05:41:01;17.30;95.00
9984;DHT22;16737;50.932;6.780;2023-08-08T05:43:29;17.30;95.00
9984;DHT22;16737;50.932;6.780;2023-08-08T05:45:56;17.40;95.10
9984;DHT22;16737;50.932;6.780;2023-08-08T05:48:23;17.40;95.00
9984;DHT22;16737;50.932;6.780;2023-08-08T05:50:50;17.50;95.10
9984;DHT22;16737;50.932;6.780;2023-08-08T05:53:17;17.50;95.40
9984;DHT22;16737;50.932;6.780;2023-08-08T05:55:44;17.50;95.10
9984;DHT22;16737;50.932;6.780;2023-08-08T05:58:11;17.60;95.20
9984;DHT22;16737;50.932;6.780;2023-08-08T06:00:40;17.60;95.20
9984;DHT22;16737;50.932;6.780;2023-08-08T06:03:08;17.60;95.20
9984;DHT22;16737;50.932;6.780;2023-08-08T06:05:35;17.70;95.20
9984;DHT22;16737;50.932;6.780;2023-08-08T06:08:02;17.70;95.20
9984;DHT22;16737;50.932;6.780;2023-08-08T06:10:32;17.80;95.30
9984;DHT22;16737;50.932;6.780;2023-08-08T06:13:00;17.90;95.30
9984;DHT22;16737;50.932;6.780;2023-08-08T06:15:27;17.90;95.20
9984;DHT22;16737;50.932;6.780;2023-08-08T06:17:55;17.90;95.20
9984;DHT22;16737;50.932;6.780;2023-08-08T06:20:22;18.00;95.30
9984;DHT22;16737;50.932;6.780;2023-08-08T06:22:49;18.00;95.30
9984;DHT22;16737;50.932;6.780;2023-08-08T06:25:16;18.10;95.20
9984;DHT22;16737;50.932;6.780;2023-08-08T06:27:43;18.10;95.20
9984;DHT22;16737;50.932;6.780;2023-08-08T06:30:10;18.10;95.20
9984;DHT22;16737;50.932;6.780;2023-08-08T06:32:37;18.20;95.20
9984;DHT22;16737;50.932;6.780;2023-08-08T06:35:07;18.20;95.10
9984;DHT22;16737;50.932;6.780;2023-08-08T06:37:34;18.30;95.10
9984;DHT22;16737;50.932;6.780;2023-08-08T06:40:01;18.30;95.00
9984;DHT22;16737;50.932;6.780;2023-08-08T06:42:28;18.30;95.00
9984;DHT22;16737;50.932;6.780;2023-08-08T06:44:55;18.30;95.00
9984;DHT22;16737;50.932;6.780;2023-08-08T06:47:22;18.30;94.90
9984;DHT22;16737;50.932;6.780;2023-08-08T06:49:49;18.30;94.90
9984;DHT22;16737;50.932;6.780;2023-08-08T06:52:18;18.40;95.00
9984;DHT22;16737;50.932;6.780;2023-08-08T06:54:44;18.40;95.00
9984;DHT22;16737;50.932;6.780;2023-08-08T06:57:11;18.50;95.00
9984;DHT22;16737;50.932;6.780;2023-08-08T06:59:38;18.50;95.00
9984;DHT22;16737;50.932;6.780;2023-08-08T07:02:08;18.50;95.00
9984;DHT22;16737;50.932;6.780;2023-08-08T07:04:35;18.50;95.00
9984;DHT22;16737;50.932;6.780;2023-08-08T07:07:02;18.50;95.00
9984;DHT22;16737;50.932;6.780;2023-08-08T07:09:31;18.50;95.00
9984;DHT22;16737;50.932;6.780;2023-08-08T07:11:59;18.60;95.10
9984;DHT22;16737;50.932;6.780;2023-08-08T07:14:26;18.60;95.00
9984;DHT22;16737;50.932;6.780;2023-08-08T07:16:53;18.70;95.00
9984;DHT22;16737;50.932;6.780;2023-08-08T07:19:21;18.70;95.00
9984;DHT22;16737;50.932;6.780;2023-08-08T07:21:48;18.80;95.10
9984;DHT22;16737;50.932;6.780;2023-08-08T07:24:16;18.80;95.10
9984;DHT22;16737;50.932;6.780;2023-08-08T07:26:45;18.80;95.00
9984;DHT22;16737;50.932;6.780;2023-08-08T07:29:12;18.80;94.90
9984;DHT22;16737;50.932;6.780;2023-08-08T07:31:39;18.90;95.00
9984;DHT22;16737;50.932;6.780;2023-08-08T07:34:06;18.90;95.00
9984;DHT22;16737;50.932;6.780;2023-08-08T07:36:33;18.90;95.00
9984;DHT22;16737;50.932;6.780;2023-08-08T07:39:00;18.90;95.00
9984;DHT22;16737;50.932;6.780;2023-08-08T07:41:28;18.90;95.00
9984;DHT22;16737;50.932;6.780;2023-08-08T07:43:57;19.00;95.10
9984;DHT22;16737;50.932;6.780;2023-08-08T07:46:24;19.00;95.00
9984;DHT22;16737;50.932;6.780;2023-08-08T07:48:51;19.10;95.00
9984;DHT22;16737;50.932;6.780;2023-08-08T07:51:18;19.10;95.00
9984;DHT22;16737;50.932;6.780;2023-08-08T07:53:45;19.10;95.00
9984;DHT22;16737;50.932;6.780;2023-08-08T07:56:12;19.10;95.00
9984;DHT22;16737;50.932;6.780;2023-08-08T07:58:39;19.10;95.10
9984;DHT22;16737;50.932;6.780;2023-08-08T08:01:07;19.10;95.10
9984;DHT22;16737;50.932;6.780;2023-08-08T08:03:34;19.30;95.30
9984;DHT22;16737;50.932;6.780;2023-08-08T08:06:01;19.30;95.20
9984;DHT22;16737;50.932;6.780;2023-08-08T08:08:28;19.40;95.20
9984;DHT22;16737;50.932;6.780;2023-08-08T08:10:55;19.40;95.20
9984;DHT22;16737;50.932;6.780;2023-08-08T08:13:22;19.50;95.20
9984;DHT22;16737;50.932;6.780;2023-08-08T08:15:49;19.50;95.10
9984;DHT22;16737;50.932;6.780;2023-08-08T08:18:18;19.60;95.10
9984;DHT22;16737;50.932;6.780;2023-08-08T08:20:45;19.60;95.00
9984;DHT22;16737;50.932;6.780;2023-08-08T08:23:13;19.60;95.00
9984;DHT22;16737;50.932;6.780;2023-08-08T08:25:40;19.70;95.00
9984;DHT22;16737;50.932;6.780;2023-08-08T08:28:07;19.70;94.90
9984;DHT22;16737;50.932;6.780;2023-08-08T08:30:34;19.70;94.90
9984;DHT22;16737;50.932;6.780;2023-08-08T08:33:02;19.80;95.00
9984;DHT22;16737;50.932;6.780;2023-08-08T08:35:31;19.80;95.00
9984;DHT22;16737;50.932;6.780;2023-08-08T08:37:58;19.90;95.00
9984;DHT22;16737;50.932;6.780;2023-08-08T08:40:25;19.90;94.90
9984;DHT22;16737;50.932;6.780;2023-08-08T08:42:54;20.00;94.80
9984;DHT22;16737;50.932;6.780;2023-08-08T08:45:22;20.00;94.80
9984;DHT22;16737;50.932;6.780;2023-08-08T08:47:49;20.00;94.70
9984;DHT22;16737;50.932;6.780;2023-08-08T08:50:21;20.00;94.60
9984;DHT22;16737;50.932;6.780;2023-08-08T08:52:50;20.10;94.50
9984;DHT22;16737;50.932;6.780;2023-08-08T08:55:20;20.00;94.30
9984;DHT22;16737;50.932;6.780;2023-08-08T08:57:48;20.00;94.30
9984;DHT22;16737;50.932;6.780;2023-08-08T09:00:16;20.10;94.40
9984;DHT22;16737;50.932;6.780;2023-08-08T09:02:44;20.10;94.40
9984;DHT22;16737;50.932;6.780;2023-08-08T09:05:12;20.10;94.50
9984;DHT22;16737;50.932;6.780;2023-08-08T09:07:40;20.10;94.50
9984;DHT22;16737;50.932;6.780;2023-08-08T09:10:09;20.10;94.60
9984;DHT22;16737;50.932;6.780;2023-08-08T09:12:36;20.20;94.60
9984;DHT22;16737;50.932;6.780;2023-08-08T09:15:04;20.30;94.60
9984;DHT22;16737;50.932;6.780;2023-08-08T09:17:32;20.40;94.50
9984;DHT22;16737;50.932;6.780;2023-08-08T09:19:58;20.40;94.40
9984;DHT22;16737;50.932;6.780;2023-08-08T09:22:25;20.40;94.50
9984;DHT22;16737;50.932;6.780;2023-08-08T09:24:54;20.50;94.20
9984;DHT22;16737;50.932;6.780;2023-08-08T09:27:23;20.50;94.10
9984;DHT22;16737;50.932;6.780;2023-08-08T09:29:50;20.50;94.00
9984;DHT22;16737;50.932;6.780;2023-08-08T09:32:18;20.50;94.10
9984;DHT22;16737;50.932;6.780;2023-08-08T09:34:44;20.50;94.20
9984;DHT22;16737;50.932;6.780;2023-08-08T09:37:11;20.60;94.30
9984;DHT22;16737;50.932;6.780;2023-08-08T09:39:39;20.60;94.20
9984;DHT22;16737;50.932;6.780;2023-08-08T09:42:07;20.60;94.10
9984;DHT22;16737;50.932;6.780;2023-08-08T09:44:38;20.70;94.00
9984;DHT22;16737;50.932;6.780;2023-08-08T09:47:05;20.70;93.90
9984;DHT22;16737;50.932;6.780;2023-08-08T09:49:32;20.80;93.90
9984;DHT22;16737;50.932;6.780;2023-08-08T09:52:03;20.80;93.90
9984;DHT22;16737;50.932;6.780;2023-08-08T09:54:31;20.80;93.80
9984;DHT22;16737;50.932;6.780;2023-08-08T09:56:59;20.90;93.80
9984;DHT22;16737;50.932;6.780;2023-08-08T09:59:26;20.80;93.50
9984;DHT22;16737;50.932;6.780;2023-08-08T10:01:57;20.90;93.40
9984;DHT22;16737;50.932;6.780;2023-08-08T10:04:24;20.90;93.10
9984;DHT22;16737;50.932;6.780;2023-08-08T10:06:52;20.90;93.20
9984;DHT22;16737;50.932;6.780;2023-08-08T10:09:19;20.90;93.30
9984;DHT22;16737;50.932;6.780;2023-08-08T10:11:48;20.90;93.20
9984;DHT22;16737;50.932;6.780;2023-08-08T10:14:16;21.00;93.20
9984;DHT22;16737;50.932;6.780;2023-08-08T10:16:43;20.90;93.10
9984;DHT22;16737;50.932;6.780;2023-08-08T10:19:12;20.90;93.10
9984;DHT22;16737;50.932;6.780;2023-08-08T10:21:43;21.00;93.00
9984;DHT22;16737;50.932;6.780;2023-08-08T10:24:11;20.90;92.80
9984;DHT22;16737;50.932;6.780;2023-08-08T10:26:51;21.00;92.90
9984;DHT22;16737;50.932;6.780;2023-08-08T10:29:19;21.00;92.60
9984;DHT22;16737;50.932;6.780;2023-08-08T10:31:57;21.00;92.80
9984;DHT22;16737;50.932;6.780;2023-08-08T10:34:36;21.10;92.70
9984;DHT22;16737;50.932;6.780;2023-08-08T10:37:05;21.10;92.60
9984;DHT22;16737;50.932;6.780;2023-08-08T10:39:35;21.10;92.80
9984;DHT22;16737;50.932;6.780;2023-08-08T10:42:04;21.20;92.70
9984;DHT22;16737;50.932;6.780;2023-08-08T10:44:31;21.20;92.60
9984;DHT22;16737;50.932;6.780;2023-08-08T10:47:00;21.20;92.70
9984;DHT22;16737;50.932;6.780;2023-08-08T10:49:28;21.20;92.50
9984;DHT22;16737;50.932;6.780;2023-08-08T10:52:02;21.30;92.50
9984;DHT22;16737;50.932;6.780;2023-08-08T10:54:30;21.40;92.60
9984;DHT22;16737;50.932;6.780;2023-08-08T10:56:59;21.40;92.50
9984;DHT22;16737;50.932;6.780;2023-08-08T10:59:35;21.40;92.40
9984;DHT22;16737;50.932;6.780;2023-08-08T11:02:03;21.40;92.20
9984;DHT22;16737;50.932;6.780;2023-08-08T11:04:33;21.40;92.20
9984;DHT22;16737;50.932;6.780;2023-08-08T11:07:01;21.40;92.10
9984;DHT22;16737;50.932;6.780;2023-08-08T11:09:28;21.50;92.20
9984;DHT22;16737;50.932;6.780;2023-08-08T11:11:55;21.40;92.00
9984;DHT22;16737;50.932;6.780;2023-08-08T11:14:22;21.40;91.80
9984;DHT22;16737;50.932;6.780;2023-08-08T11:16:51;21.40;91.80
9984;DHT22;16737;50.932;6.780;2023-08-08T11:19:19;21.40;91.70
9984;DHT22;16737;50.932;6.780;2023-08-08T11:21:48;21.30;91.70
9984;DHT22;16737;50.932;6.780;2023-08-08T11:24:15;21.40;91.70
9984;DHT22;16737;50.932;6.780;2023-08-08T11:26:44;21.40;91.80
9984;DHT22;16737;50.932;6.780;2023-08-08T11:29:12;21.40;91.70
9984;DHT22;16737;50.932;6.780;2023-08-08T11:31:40;21.30;91.70
9984;DHT22;16737;50.932;6.780;2023-08-08T11:34:08;21.40;91.70
9984;DHT22;16737;50.932;6.780;2023-08-08T11:36:37;21.40;91.80
9984;DHT22;16737;50.932;6.780;2023-08-08T11:39:07;21.40;91.70
9984;DHT22;16737;50.932;6.780;2023-08-08T11:41:36;21.50;91.50
9984;DHT22;16737;50.932;6.780;2023-08-08T11:44:04;21.50;91.50
9984;DHT22;16737;50.932;6.780;2023-08-08T11:46:32;21.50;91.50
9984;DHT22;16737;50.932;6.780;2023-08-08T11:49:03;21.50;91.50
9984;DHT22;16737;50.932;6.780;2023-08-08T11:51:32;21.60;91.30
9984;DHT22;16737;50.932;6.780;2023-08-08T11:54:00;21.60;91.30
9984;DHT22;16737;50.932;6.780;2023-08-08T11:56:33;21.60;91.20
9984;DHT22;16737;50.932;6.780;2023-08-08T11:59:01;21.60;90.80
9984;DHT22;16737;50.932;6.780;2023-08-08T12:01:29;21.50;90.90
9984;DHT22;16737;50.932;6.780;2023-08-08T12:03:58;21.50;90.80
9984;DHT22;16737;50.932;6.780;2023-08-08T12:06:30;21.50;90.70
9984;DHT22;16737;50.932;6.780;2023-08-08T12:08:57;21.50;90.70
9984;DHT22;16737;50.932;6.780;2023-08-08T12:11:24;21.50;90.80
9984;DHT22;16737;50.932;6.780;2023-08-08T12:13:58;21.40;90.80
9984;DHT22;16737;50.932;6.780;2023-08-08T12:16:28;21.40;90.40
9984;DHT22;16737;50.932;6.780;2023-08-08T12:18:56;21.50;91.00
9984;DHT22;16737;50.932;6.780;2023-08-08T12:21:23;21.50;90.70
9984;DHT22;16737;50.932;6.780;2023-08-08T12:23:51;21.40;90.60
9984;DHT22;16737;50.932;6.780;2023-08-08T12:26:18;21.40;90.60
9984;DHT22;16737;50.932;6.780;2023-08-08T12:28:45;21.40;90.70
9984;DHT22;16737;50.932;6.780;2023-08-08T12:31:13;21.50;90.70
9984;DHT22;16737;50.932;6.780;2023-08-08T12:33:40;21.40;90.60
9984;DHT22;16737;50.932;6.780;2023-08-08T12:36:07;21.50;90.60
9984;DHT22;16737;50.932;6.780;2023-08-08T12:38:34;21.40;90.40
9984;DHT22;16737;50.932;6.780;2023-08-08T12:41:01;21.50;90.30
9984;DHT22;16737;50.932;6.780;2023-08-08T12:43:28;21.40;90.30
9984;DHT22;16737;50.932;6.780;2023-08-08T12:45:55;21.40;90.30
9984;DHT22;16737;50.932;6.780;2023-08-08T12:48:23;21.40;90.30
9984;DHT22;16737;50.932;6.780;2023-08-08T12:50:50;21.50;90.40
9984;DHT22;16737;50.932;6.780;2023-08-08T12:53:17;21.50;90.50
9984;DHT22;16737;50.932;6.780;2023-08-08T12:55:44;21.50;90.40
9984;DHT22;16737;50.932;6.780;2023-08-08T12:58:11;21.50;90.10
9984;DHT22;16737;50.932;6.780;2023-08-08T13:00:38;21.50;89.70
9984;DHT22;16737;50.932;6.780;2023-08-08T13:03:05;21.50;89.70
9984;DHT22;16737;50.932;6.780;2023-08-08T13:05:34;21.50;89.70
9984;DHT22;16737;50.932;6.780;2023-08-08T13:08:01;21.50;89.40
9984;DHT22;16737;50.932;6.780;2023-08-08T13:10:28;21.40;89.40
9984;DHT22;16737;50.932;6.780;2023-08-08T13:12:56;21.40;89.30
9984;DHT22;16737;50.932;6.780;2023-08-08T13:15:23;21.40;89.30
9984;DHT22;16737;50.932;6.780;2023-08-08T13:17:50;21.30;89.40
9984;DHT22;16737;50.932;6.780;2023-08-08T13:20:17;21.30;89.60
9984;DHT22;16737;50.932;6.780;2023-08-08T13:22:46;21.30;89.60
9984;DHT22;16737;50.932;6.780;2023-08-08T13:25:12;21.30;89.30
9984;DHT22;16737;50.932;6.780;2023-08-08T13:27:40;21.30;89.40
9984;DHT22;16737;50.932;6.780;2023-08-08T13:30:08;21.30;89.30
9984;DHT22;16737;50.932;6.780;2023-08-08T13:32:36;21.30;89.30
9984;DHT22;16737;50.932;6.780;2023-08-08T13:35:04;21.30;89.20
9984;DHT22;16737;50.932;6.780;2023-08-08T13:37:32;21.20;89.10
9984;DHT22;16737;50.932;6.780;2023-08-08T13:40:00;21.30;89.20
9984;DHT22;16737;50.932;6.780;2023-08-08T13:42:27;21.20;89.20
9984;DHT22;16737;50.932;6.780;2023-08-08T13:44:54;21.20;89.30
9984;DHT22;16737;50.932;6.780;2023-08-08T13:47:21;21.20;89.20
9984;DHT22;16737;50.932;6.780;2023-08-08T13:49:48;21.20;89.20
9984;DHT22;16737;50.932;6.780;2023-08-08T13:52:15;21.20;89.40
9984;DHT22;16737;50.932;6.780;2023-08-08T13:54:42;21.20;89.50
9984;DHT22;16737;50.932;6.780;2023-08-08T13:57:10;21.20;89.80
9984;DHT22;16737;50.932;6.780;2023-08-08T13:59:37;21.10;90.00
9984;DHT22;16737;50.932;6.780;2023-08-08T14:02:04;21.20;90.00
9984;DHT22;16737;50.932;6.780;2023-08-08T14:04:32;21.10;89.90
9984;DHT22;16737;50.932;6.780;2023-08-08T14:06:59;21.10;89.80
9984;DHT22;16737;50.932;6.780;2023-08-08T14:09:25;21.10;90.00
9984;DHT22;16737;50.932;6.780;2023-08-08T14:11:53;21.10;90.00
9984;DHT22;16737;50.932;6.780;2023-08-08T14:14:21;21.20;90.10
9984;DHT22;16737;50.932;6.780;2023-08-08T14:16:48;21.10;90.00
9984;DHT22;16737;50.932;6.780;2023-08-08T14:19:15;21.20;90.20
9984;DHT22;16737;50.932;6.780;2023-08-08T14:21:42;21.20;90.20
9984;DHT22;16737;50.932;6.780;2023-08-08T14:24:09;21.30;90.10
9984;DHT22;16737;50.932;6.780;2023-08-08T14:26:37;21.30;90.10
9984;DHT22;16737;50.932;6.780;2023-08-08T14:29:04;21.40;90.30
9984;DHT22;16737;50.932;6.780;2023-08-08T14:31:32;21.40;90.20
9984;DHT22;16737;50.932;6.780;2023-08-08T14:33:59;21.50;90.10
9984;DHT22;16737;50.932;6.780;2023-08-08T14:36:26;21.60;90.10
9984;DHT22;16737;50.932;6.780;2023-08-08T14:38:53;21.70;90.00
9984;DHT22;16737;50.932;6.780;2023-08-08T14:41:20;21.70;90.00
9984;DHT22;16737;50.932;6.780;2023-08-08T14:43:47;21.70;89.90
9984;DHT22;16737;50.932;6.780;2023-08-08T14:46:14;21.80;90.00
9984;DHT22;16737;50.932;6.780;2023-08-08T14:48:42;21.90;90.00
9984;DHT22;16737;50.932;6.780;2023-08-08T14:51:09;21.90;90.00
9984;DHT22;16737;50.932;6.780;2023-08-08T14:53:38;22.00;90.00
9984;DHT22;16737;50.932;6.780;2023-08-08T14:56:05;22.00;89.90
9984;DHT22;16737;50.932;6.780;2023-08-08T14:58:32;22.10;89.90
9984;DHT22;16737;50.932;6.780;2023-08-08T15:01:01;22.10;89.60
9984;DHT22;16737;50.932;6.780;2023-08-08T15:03:28;22.20;89.70
9984;DHT22;16737;50.932;6.780;2023-08-08T15:05:56;22.20;89.60
9984;DHT22;16737;50.932;6.780;2023-08-08T15:08:23;22.30;89.50
9984;DHT22;16737;50.932;6.780;2023-08-08T15:10:50;22.30;89.30
9984;DHT22;16737;50.932;6.780;2023-08-08T15:13:17;22.40;89.30
9984;DHT22;16737;50.932;6.780;2023-08-08T15:15:45;22.40;89.10
9984;DHT22;16737;50.932;6.780;2023-08-08T15:18:12;22.40;89.20
9984;DHT22;16737;50.932;6.780;2023-08-08T15:20:39;22.50;89.60
9984;DHT22;16737;50.932;6.780;2023-08-08T15:23:07;22.50;89.90
9984;DHT22;16737;50.932;6.780;2023-08-08T15:25:35;22.60;89.10
9984;DHT22;16737;50.932;6.780;2023-08-08T15:28:03;22.60;89.40
9984;DHT22;16737;50.932;6.780;2023-08-08T15:30:30;22.70;89.20
9984;DHT22;16737;50.932;6.780;2023-08-08T15:32:57;22.80;89.40
9984;DHT22;16737;50.932;6.780;2023-08-08T15:35:24;22.80;89.30
9984;DHT22;16737;50.932;6.780;2023-08-08T15:37:51;22.90;89.10
9984;DHT22;16737;50.932;6.780;2023-08-08T15:40:19;23.00;88.90
9984;DHT22;16737;50.932;6.780;2023-08-08T15:42:46;23.00;88.40
9984;DHT22;16737;50.932;6.780;2023-08-08T15:45:13;23.10;88.60
9984;DHT22;16737;50.932;6.780;2023-08-08T15:47:40;23.10;88.70